Time;durP1;ratioP1;P1;durP2;ratioP2;P2;SDS_P1;SDS_P2;PMS_P1;PMS_P2;Temp;Humidity;BMP_temperature;BMP_pressure;BME280_temperature;BME280_humidity;BME280_pressure;Samples;Min_cycle;Max_cycle;Signal;HPM_P1;HPM_P2
2022/06/18 00:01:36;;;;;;;4.38;2.10;;;;;;;21.80;46.18;99175.59;5095432;28;20040;-70
2022/06/18 00:04:14;;;;;;;3.33;2.45;;;;;;;21.76;46.19;99175.16;5095010;28;20059;-71
2022/06/18 00:06:59;;;;;;;7.13;2.22;;;;;;;21.72;46.56;99171.22;5095660;28;20364;-71
2022/06/18 00:09:45;;;;;;;7.03;2.10;;;;;;;21.69;46.88;99185.09;5095420;28;20032;-70
2022/06/18 00:15:12;;;;;;;4.28;2.58;;;;;;;21.61;46.84;99178.03;5095621;28;20085;-72
2022/06/18 00:17:38;;;;;;;9.07;2.10;;;;;;;21.59;47.03;99188.13;5095175;28;20031;-70
2022/06/18 00:20:04;;;;;;;5.97;2.15;;;;;;;21.57;46.91;99176.72;5095249;28;20475;-68
2022/06/18 00:22:29;;;;;;;4.47;1.70;;;;;;;21.55;47.05;99178.78;5094679;28;20051;-68
2022/06/18 00:24:55;;;;;;;4.47;2.03;;;;;;;21.52;46.95;99179.22;5095072;28;20036;-68
2022/06/18 00:27:20;;;;;;;4.00;2.88;;;;;;;21.49;47.01;99176.91;5094495;28;20097;-68
2022/06/18 00:29:49;;;;;;;4.70;2.03;;;;;;;21.48;47.02;99186.03;5094931;28;20028;-69
2022/06/18 00:32:14;;;;;;;6.15;1.90;;;;;;;21.45;46.86;99179.19;5094833;28;20028;-69
2022/06/18 00:34:40;;;;;;;5.10;2.30;;;;;;;21.45;46.92;99173.81;5094935;28;20540;-71
2022/06/18 00:37:06;;;;;;;10.20;2.10;;;;;;;21.46;47.09;99188.06;5094812;28;20036;-70
2022/06/18 00:39:32;;;;;;;6.30;2.22;;;;;;;21.46;46.99;99180.00;5094412;28;20042;-70
2022/06/18 00:42:05;;;;;;;5.25;2.42;;;;;;;21.46;46.73;99186.22;5094549;28;20053;-71
2022/06/18 00:44:30;;;;;;;3.70;1.80;;;;;;;21.47;46.88;99189.75;5094370;28;20063;-71
2022/06/18 00:47:01;;;;;;;4.10;1.90;;;;;;;21.46;46.92;99193.47;5094317;28;20063;-71
2022/06/18 00:49:34;;;;;;;;;;;;;;;21.40;46.86;99200.47;5095343;28;20027;-71
2022/06/18 00:52:14;;;;;;;3.80;1.63;;;;;;;21.43;46.74;99204.63;5093982;28;19915;-72
2022/06/18 00:54:57;;;;;;;1.95;1.63;;;;;;;21.45;46.72;99199.88;5094115;28;20406;-71
2022/06/18 00:57:31;;;;;;;2.20;1.63;;;;;;;21.47;46.69;99206.72;5094130;28;20028;-73
2022/06/18 01:00:22;;;;;;;3.13;1.50;;;;;;;21.48;46.57;99207.56;5094125;28;20056;-71
2022/06/18 01:02:49;;;;;;;2.38;1.52;;;;;;;21.47;46.57;99206.72;5094239;28;20093;-72
2022/06/18 01:05:24;;;;;;;3.72;1.55;;;;;;;21.49;46.52;99214.59;5094514;28;20032;-68
2022/06/18 01:07:54;;;;;;;2.80;1.58;;;;;;;21.50;46.46;99214.38;5093793;28;20024;-70
2022/06/18 01:10:29;;;;;;;3.15;1.77;;;;;;;21.49;46.39;99219.97;5093893;28;20028;-69
2022/06/18 01:12:56;;;;;;;2.83;1.90;;;;;;;21.48;46.44;99212.94;5093551;28;20032;-71
2022/06/18 01:15:22;;;;;;;2.92;1.30;;;;;;;21.47;46.46;99216.66;5094411;28;20027;-70
2022/06/18 01:17:53;;;;;;;2.83;1.90;;;;;;;21.48;46.22;99221.00;5093969;28;20048;-72
2022/06/18 01:20:19;;;;;;;3.90;1.50;;;;;;;21.46;46.12;99220.38;5093675;28;20505;-70
2022/06/18 01:22:52;;;;;;;1.80;1.30;;;;;;;21.43;46.28;99221.63;5092834;28;20100;-69
2022/06/18 01:25:19;;;;;;;1.67;1.35;;;;;;;21.42;46.40;99227.19;5093920;28;20077;-71
2022/06/18 01:27:45;;;;;;;2.95;1.60;;;;;;;21.39;46.37;99220.34;5093479;28;20079;-68
2022/06/18 01:30:16;;;;;;;3.65;1.60;;;;;;;21.40;46.28;99221.16;5093631;28;20039;-69
2022/06/18 01:32:43;;;;;;;4.03;1.52;;;;;;;21.39;46.41;99223.03;5093564;28;20036;-72
2022/06/18 01:35:10;;;;;;;4.00;1.20;;;;;;;21.40;46.20;99222.00;5093758;28;20507;-71
2022/06/18 01:37:36;;;;;;;3.00;1.90;;;;;;;21.38;46.32;99226.75;5093487;28;20036;-69
2022/06/18 01:40:05;;;;;;;4.40;1.58;;;;;;;21.41;46.07;99230.91;5093333;28;20040;-72
2022/06/18 01:42:40;;;;;;;4.38;1.70;;;;;;;21.41;46.06;99229.06;5093480;28;20039;-70
2022/06/18 01:45:14;;;;;;;1.77;1.48;;;;;;;21.42;46.01;99228.03;5093872;28;20036;-70
2022/06/18 01:48:02;;;;;;;2.92;1.60;;;;;;;21.44;46.00;99238.59;5093134;28;20483;-69
2022/06/18 01:50:39;;;;;;;3.03;1.65;;;;;;;21.46;45.87;99233.84;5092937;28;20052;-72
2022/06/18 01:53:20;;;;;;;3.33;1.90;;;;;;;21.46;45.94;99242.75;5093013;28;20047;-70
2022/06/18 01:55:52;;;;;;;2.97;1.60;;;;;;;21.42;45.87;99233.41;5093473;28;20047;-67
2022/06/18 01:58:47;;;;;;;2.97;1.65;;;;;;;21.39;45.89;99244.56;5092915;28;20039;-71
2022/06/18 02:01:18;;;;;;;2.83;1.60;;;;;;;21.34;46.08;99245.16;5078586;28;20059;-70
2022/06/18 02:03:44;;;;;;;2.65;2.00;;;;;;;21.34;46.07;99253.25;5092830;28;20024;-70
2022/06/18 02:06:10;;;;;;;2.78;1.20;;;;;;;21.32;46.09;99255.28;5092928;28;20035;-70
2022/06/18 02:08:37;;;;;;;4.53;1.55;;;;;;;21.30;46.07;99254.66;5093215;28;20058;-73
2022/06/18 02:11:05;;;;;;;3.83;1.70;;;;;;;21.31;45.93;99256.31;5093099;28;20027;-71
2022/06/18 02:13:42;;;;;;;2.72;1.85;;;;;;;21.30;45.97;99259.22;5092873;28;20031;-70
2022/06/18 02:16:13;;;;;;;3.65;1.77;;;;;;;21.27;45.98;99260.44;5092981;28;20031;-71
2022/06/18 02:18:39;;;;;;;1.92;1.48;;;;;;;21.26;46.05;99258.75;5093118;28;20479;-70
2022/06/18 02:21:09;;;;;;;3.42;1.75;;;;;;;21.29;45.95;99265.63;5093524;28;20051;-73
2022/06/18 02:23:35;;;;;;;5.15;1.58;;;;;;;21.30;46.00;99254.66;5092765;28;20032;-70
2022/06/18 02:26:01;;;;;;;3.67;1.20;;;;;;;21.36;46.05;99263.78;5092896;28;20498;-70
2022/06/18 02:28:32;;;;;;;2.00;1.50;;;;;;;21.51;45.81;99258.31;5092542;28;20101;-69
2022/06/18 02:31:01;;;;;;;4.82;1.85;;;;;;;21.68;45.47;99249.94;5092890;28;20031;-69
2022/06/18 02:33:32;;;;;;;2.85;1.88;;;;;;;21.83;45.23;99245.22;5092532;28;20047;-69
2022/06/18 02:35:59;;;;;;;;;;;;;;;21.93;44.98;99252.91;5099841;28;20402;-69
2022/06/18 02:38:25;;;;;;;4.40;1.88;;;;;;;22.04;44.69;99249.63;5099402;28;20352;-70
2022/06/18 02:40:51;;;;;;;2.03;1.60;;;;;;;22.08;44.60;99244.66;5099638;28;20039;-70
2022/06/18 02:43:20;;;;;;;4.22;1.77;;;;;;;22.08;44.38;99241.97;5099454;28;20035;-71
2022/06/18 02:45:50;;;;;;;2.00;1.42;;;;;;;22.05;44.30;99245.91;5099484;28;20406;-71
2022/06/18 02:48:15;;;;;;;2.97;2.15;;;;;;;22.04;44.43;99246.09;5099144;28;20123;-70
2022/06/18 02:50:42;;;;;;;6.47;1.50;;;;;;;22.03;44.36;99242.59;5099849;28;20116;-68
2022/06/18 02:53:11;;;;;;;2.75;1.50;;;;;;;22.04;44.50;99240.72;5098908;28;20437;-67
2022/06/18 02:55:37;;;;;;;3.88;1.23;;;;;;;22.00;44.26;99239.44;5099527;28;20054;-73
2022/06/18 02:58:08;;;;;;;5.00;2.22;;;;;;;21.95;44.26;99235.53;5099068;28;20044;-69
2022/06/18 03:00:36;;;;;;;;;;;;;;;21.89;44.43;99239.00;5099529;28;20118;-72
2022/06/18 03:03:03;;;;;;;3.15;1.27;;;;;;;21.90;44.42;99235.28;5098854;28;20014;-68
2022/06/18 03:05:29;;;;;;;2.38;1.27;;;;;;;21.89;44.35;99228.25;5099125;28;20483;-70
2022/06/18 03:07:55;;;;;;;1.73;1.10;;;;;;;21.88;44.19;99228.44;5099280;28;20096;-70
2022/06/18 03:13:05;;;;;;;1.92;1.17;;;;;;;21.95;44.07;99234.66;5094778;28;20040;-71
2022/06/18 03:15:31;;;;;;;3.08;1.17;;;;;;;22.05;43.96;99234.28;5079015;28;20036;-71
2022/06/18 03:17:58;;;;;;;8.30;2.00;;;;;;;22.17;43.73;99239.91;5078867;28;20495;-69
2022/06/18 03:20:30;;;;;;;4.95;1.35;;;;;;;22.39;43.36;99238.69;5078665;28;20035;-72
2022/06/18 03:22:57;;;;;;;2.75;1.15;;;;;;;22.60;43.11;99239.59;5078620;28;20032;-69
2022/06/18 03:25:22;;;;;;;2.42;1.40;;;;;;;22.83;42.78;99235.63;5078672;28;20039;-70
2022/06/18 03:27:48;;;;;;;5.45;1.38;;;;;;;23.04;42.20;99242.66;5078555;28;20048;-70
2022/06/18 03:30:13;;;;;;;2.53;1.48;;;;;;;23.24;42.01;99245.34;5078501;28;20054;-69
2022/06/18 03:32:39;;;;;;;2.00;1.10;;;;;;;23.42;41.72;99233.06;5078433;28;20028;-70
2022/06/18 03:35:05;;;;;;;1.98;1.33;;;;;;;23.56;41.53;99245.47;5078861;28;20032;-73
2022/06/18 03:37:30;;;;;;;4.32;0.80;;;;;;;23.63;40.96;99234.63;5078522;28;20036;-70
2022/06/18 03:39:56;;;;;;;4.13;1.15;;;;;;;23.68;40.71;99242.94;5078519;28;20028;-70
2022/06/18 03:42:21;;;;;;;1.63;0.80;;;;;;;23.64;40.71;99233.59;5094571;28;20111;-70
2022/06/18 03:44:47;;;;;;;1.92;1.30;;;;;;;23.64;40.89;99235.47;5099033;28;20062;-69
2022/06/18 03:47:12;;;;;;;1.38;1.00;;;;;;;23.61;40.15;99239.41;5095225;28;20027;-68
2022/06/18 03:49:38;;;;;;;1.83;1.63;;;;;;;23.55;40.45;99234.91;5095798;28;20469;-72
2022/06/18 03:52:06;;;;;;;2.55;0.82;;;;;;;23.51;40.35;99226.41;5095137;28;20117;-68
2022/06/18 03:54:32;;;;;;;1.08;0.85;;;;;;;23.49;40.58;99227.63;5095655;28;20036;-69
2022/06/18 03:56:59;;;;;;;8.20;1.10;;;;;;;23.45;40.42;99233.44;5095301;28;20448;-72
2022/06/18 03:59:24;;;;;;;1.63;1.10;;;;;;;23.41;40.50;99239.50;5095665;28;20487;-69
2022/06/18 04:01:50;;;;;;;1.63;1.10;;;;;;;23.35;40.83;99243.06;5095560;28;20036;-73
2022/06/18 04:04:15;;;;;;;1.10;0.80;;;;;;;23.30;40.79;99247.22;5095771;28;20040;-69
2022/06/18 04:06:42;;;;;;;2.35;1.10;;;;;;;23.29;40.81;99250.13;5095139;28;20032;-70
2022/06/18 04:09:08;;;;;;;1.15;0.80;;;;;;;23.26;40.46;99248.66;5095458;28;20123;-68
2022/06/18 04:11:34;;;;;;;0.80;0.65;;;;;;;23.25;40.28;99251.59;5095231;28;20118;-70
2022/06/18 04:14:00;;;;;;;1.45;0.85;;;;;;;23.23;40.46;99251.81;5094791;28;20126;-70
2022/06/18 04:16:26;;;;;;;5.00;1.10;;;;;;;23.21;40.35;99247.66;5095209;28;20040;-71
2022/06/18 04:18:52;;;;;;;1.42;0.90;;;;;;;23.19;40.08;99250.53;5095250;28;20039;-70
2022/06/18 04:21:17;;;;;;;1.67;0.70;;;;;;;23.17;40.11;99253.44;5094783;28;20032;-71
2022/06/18 04:23:44;;;;;;;1.73;1.00;;;;;;;23.19;40.02;99249.69;5094850;28;20058;-69
2022/06/18 04:26:12;;;;;;;1.27;0.68;;;;;;;23.17;40.02;99248.03;5094850;28;20093;-71
2022/06/18 04:28:38;;;;;;;3.25;0.98;;;;;;;23.18;40.11;99254.28;5094682;28;20097;-72
2022/06/18 04:31:04;;;;;;;1.75;0.90;;;;;;;23.21;39.85;99253.88;5094955;28;20036;-70
2022/06/18 04:33:30;;;;;;;1.08;0.80;;;;;;;23.35;39.94;99267.34;5095355;28;20044;-71
2022/06/18 04:35:57;;;;;;;2.45;0.98;;;;;;;23.54;39.62;99258.34;5094588;28;20483;-70
2022/06/18 04:38:23;;;;;;;6.35;1.55;;;;;;;23.78;39.24;99256.81;5094485;28;20028;-70
2022/06/18 04:40:49;;;;;;;1.77;0.77;;;;;;;23.99;39.10;99257.59;5094583;28;20024;-68
2022/06/18 04:43:15;;;;;;;2.60;0.90;;;;;;;24.24;38.61;99262.22;5094420;28;20058;-71
2022/06/18 04:45:40;;;;;;;1.42;0.90;;;;;;;24.44;37.96;99267.50;5094705;28;20534;-69
2022/06/18 04:48:06;;;;;;;1.63;0.90;;;;;;;24.61;37.64;99261.56;5094838;28;20038;-71
2022/06/18 04:50:37;;;;;;;2.67;0.80;;;;;;;24.78;37.37;99259.16;5094402;28;20028;-70
2022/06/18 04:53:04;;;;;;;2.03;0.90;;;;;;;24.90;36.99;99259.25;5094432;28;20062;-69
2022/06/18 04:55:29;;;;;;;1.40;0.77;;;;;;;25.03;36.65;99256.44;5094359;28;20028;-70
2022/06/18 04:57:55;;;;;;;2.25;0.70;;;;;;;25.12;36.70;99260.53;5093033;28;20537;-70
2022/06/18 05:00:21;;;;;;;3.10;0.80;;;;;;;25.22;36.36;99265.41;5094409;28;20031;-70
2022/06/18 05:02:46;;;;;;;1.10;0.65;;;;;;;25.30;36.33;99264.28;5093887;28;20114;-68
2022/06/18 05:05:21;;;;;;;5.45;0.80;;;;;;;25.36;36.24;99271.53;5094076;28;20043;-68
2022/06/18 05:07:47;;;;;;;0.93;0.57;;;;;;;25.42;36.03;99276.09;5094003;28;20123;-68
2022/06/18 05:10:13;;;;;;;2.65;1.15;;;;;;;25.48;35.77;99271.63;5093919;28;20131;-68
2022/06/18 05:12:39;;;;;;;1.42;0.70;;;;;;;25.54;35.73;99278.03;5093733;28;20040;-68
2022/06/18 05:15:08;;;;;;;2.55;0.73;;;;;;;25.57;35.49;99275.69;5094170;28;20497;-68
2022/06/18 05:17:36;;;;;;;1.00;0.80;;;;;;;25.62;35.29;99275.00;5093695;28;20036;-71
2022/06/18 05:20:04;;;;;;;1.73;0.77;;;;;;;25.69;35.20;99273.06;5094275;28;20082;-69
2022/06/18 05:22:30;;;;;;;2.22;1.20;;;;;;;25.71;35.55;99280.94;5093929;28;20081;-72
2022/06/18 05:24:56;;;;;;;2.38;0.70;;;;;;;25.71;35.30;99275.53;5093899;28;20062;-72
2022/06/18 05:27:27;;;;;;;1.63;0.70;;;;;;;25.74;35.24;99278.63;5093395;28;20546;-71
2022/06/18 05:29:53;;;;;;;1.13;0.80;;;;;;;25.72;35.29;99279.91;5093480;28;20032;-70
2022/06/18 05:32:19;;;;;;;2.05;0.82;;;;;;;25.73;35.53;99273.44;5093604;28;20063;-69
2022/06/18 05:34:45;;;;;;;1.73;0.95;;;;;;;25.72;35.40;99280.75;5093463;28;20522;-69
2022/06/18 05:37:15;;;;;;;1.63;0.70;;;;;;;25.71;35.18;99281.78;5093352;28;20035;-69
2022/06/18 05:39:41;;;;;;;5.63;0.70;;;;;;;25.65;35.52;99281.88;5093423;28;20067;-70
2022/06/18 05:42:07;;;;;;;1.42;0.90;;;;;;;25.61;35.54;99280.66;5093610;28;20063;-69
2022/06/18 05:44:32;;;;;;;4.05;0.73;;;;;;;25.56;35.54;99281.34;5093606;28;20440;-71
2022/06/18 05:46:58;;;;;;;1.90;0.80;;;;;;;25.52;35.14;99280.94;5093740;28;20040;-70
2022/06/18 05:49:23;;;;;;;3.13;0.93;;;;;;;25.48;35.56;99277.06;5093533;28;20399;-69
2022/06/18 05:51:49;;;;;;;2.17;1.30;;;;;;;25.44;35.38;99271.25;5092759;28;20107;-70
2022/06/18 05:54:14;;;;;;;3.95;1.10;;;;;;;25.44;35.55;99278.56;5093409;28;20031;-70
2022/06/18 05:56:40;;;;;;;2.67;1.40;;;;;;;25.40;35.53;99270.03;5093059;28;20035;-71
2022/06/18 05:59:05;;;;;;;1.80;0.82;;;;;;;25.40;35.56;99285.44;5093425;28;20398;-69
2022/06/18 06:01:31;;;;;;;1.58;0.80;;;;;;;25.37;35.39;99275.03;5092948;28;20039;-70
2022/06/18 06:03:56;;;;;;;3.83;1.20;;;;;;;25.31;35.83;99270.53;5093102;28;20078;-70
2022/06/18 06:06:22;;;;;;;1.30;0.70;;;;;;;25.32;35.77;99274.91;5093223;28;20043;-70
2022/06/18 06:08:48;;;;;;;1.35;0.80;;;;;;;25.29;35.77;99274.31;5092694;28;20393;-69
2022/06/18 06:11:29;;;;;;;1.73;1.00;;;;;;;25.25;35.61;99270.38;5092609;28;20032;-70
2022/06/18 06:13:56;;;;;;;0.95;0.70;;;;;;;25.23;36.17;99277.88;5081862;28;20127;-69
2022/06/18 06:16:22;;;;;;;3.08;0.88;;;;;;;25.19;35.58;99268.59;5072424;28;20492;-69
2022/06/18 06:18:49;;;;;;;5.85;1.00;;;;;;;25.18;35.84;99269.63;5072676;28;20067;-68
2022/06/18 06:21:14;;;;;;;1.00;0.60;;;;;;;25.12;35.52;99267.81;5072608;28;20115;-68
2022/06/18 06:23:40;;;;;;;2.25;0.88;;;;;;;25.09;35.65;99273.66;5072351;28;20565;-68
2022/06/18 06:26:27;;;;;;;1.10;0.68;;;;;;;25.02;35.45;99278.31;5072251;28;20043;-70
2022/06/18 06:28:52;;;;;;;0.45;0.45;;;;;;;24.94;35.63;99277.53;5072658;28;20414;-70
2022/06/18 06:31:18;;;;;;;0.80;0.60;;;;;;;24.88;35.29;99272.19;5072577;28;20036;-70
2022/06/18 06:33:44;;;;;;;2.63;0.60;;;;;;;24.82;35.68;99280.16;5072251;28;20376;-68
2022/06/18 06:36:11;;;;;;;1.45;0.88;;;;;;;24.78;35.60;99278.94;5072175;28;20035;-69
2022/06/18 06:38:38;;;;;;;1.92;0.77;;;;;;;24.74;35.75;99275.00;5072591;28;20035;-70
2022/06/18 06:41:19;;;;;;;0.80;0.70;;;;;;;24.71;35.68;99272.72;5073878;28;20035;-68
2022/06/18 06:43:44;;;;;;;;;;;;;;;24.58;36.09;99267.41;5093006;28;20502;-69
2022/06/18 06:46:15;;;;;;;3.53;0.63;;;;;;;24.57;36.00;99271.16;5092515;28;19912;-71
2022/06/18 06:48:41;;;;;;;0.65;0.50;;;;;;;24.55;35.90;99284.09;5093274;28;20024;-68
2022/06/18 06:51:19;;;;;;;2.67;0.63;;;;;;;24.52;35.49;99274.50;5092641;28;20036;-69
2022/06/18 06:53:45;;;;;;;0.88;0.57;;;;;;;24.49;35.41;99277.66;5072463;28;20299;-70
2022/06/18 06:58:56;;;;;;;1.88;0.70;;;;;;;24.42;35.43;99277.69;5073082;28;20078;-70
2022/06/18 07:01:22;;;;;;;2.30;0.68;;;;;;;24.39;35.82;99278.16;5072696;28;20032;-72
2022/06/18 07:03:48;;;;;;;2.92;1.02;;;;;;;24.36;35.90;99265.88;5072022;28;20033;-71
2022/06/18 07:06:16;;;;;;;1.00;0.47;;;;;;;24.33;35.78;99276.31;5072080;28;20043;-69
2022/06/18 07:08:41;;;;;;;3.17;0.70;;;;;;;24.34;35.88;99283.38;5071585;28;20111;-70
2022/06/18 07:11:07;;;;;;;1.63;0.60;;;;;;;24.25;36.02;99261.19;5071891;28;20127;-70
2022/06/18 07:13:32;;;;;;;2.03;0.70;;;;;;;24.29;35.87;99277.78;5079563;28;20035;-71
2022/06/18 07:16:00;;;;;;;1.65;0.57;;;;;;;24.26;36.19;99264.72;5092464;28;20032;-70
2022/06/18 07:18:31;;;;;;;2.33;0.55;;;;;;;24.26;36.09;99262.03;5092225;28;20110;-71
2022/06/18 07:21:00;;;;;;;3.42;0.90;;;;;;;24.24;35.86;99254.09;5092822;28;20036;-73
2022/06/18 07:23:26;;;;;;;1.63;0.57;;;;;;;24.23;36.43;99260.56;5096315;28;20028;-69
2022/06/18 07:25:51;;;;;;;1.90;0.73;;;;;;;24.22;36.12;99256.19;5096271;28;20395;-69
2022/06/18 07:28:17;;;;;;;1.00;0.60;;;;;;;24.21;36.23;99252.69;5095679;28;20110;-71
2022/06/18 07:30:46;;;;;;;2.92;0.70;;;;;;;24.21;36.12;99265.34;5095405;28;20075;-70
2022/06/18 07:33:15;;;;;;;2.05;0.60;;;;;;;24.18;36.56;99253.09;5095238;28;20032;-70
2022/06/18 07:35:40;;;;;;;5.68;0.90;;;;;;;24.19;36.25;99257.47;5095896;28;20032;-71
2022/06/18 07:38:06;;;;;;;3.08;0.70;;;;;;;24.20;36.08;99255.59;5095980;28;20032;-70
2022/06/18 07:40:40;;;;;;;2.75;1.08;;;;;;;24.20;36.09;99256.44;5095732;28;20127;-69
2022/06/18 07:43:08;;;;;;;1.85;0.77;;;;;;;24.18;36.05;99263.91;5095707;28;20391;-70
2022/06/18 07:45:34;;;;;;;2.20;0.80;;;;;;;24.20;36.15;99252.88;5095824;28;20402;-70
2022/06/18 07:47:59;;;;;;;1.60;0.60;;;;;;;24.21;35.97;99255.38;5095492;28;20024;-71
2022/06/18 07:50:25;;;;;;;2.55;0.70;;;;;;;24.22;36.17;99250.78;5095423;28;20038;-70
2022/06/18 07:52:51;;;;;;;1.67;0.73;;;;;;;24.23;36.23;99250.59;5095557;28;20039;-72
2022/06/18 07:55:21;;;;;;;0.80;0.50;;;;;;;24.25;36.33;99252.25;5095747;28;20387;-70
2022/06/18 07:57:47;;;;;;;1.25;0.90;;;;;;;24.22;36.09;99248.94;5095595;28;20104;-72
2022/06/18 08:00:16;;;;;;;1.15;0.68;;;;;;;24.20;35.98;99251.03;5095332;28;20036;-73
2022/06/18 08:02:42;;;;;;;1.88;0.68;;;;;;;24.19;36.26;99253.94;5095091;28;20028;-70
2022/06/18 08:05:11;;;;;;;1.23;0.55;;;;;;;24.20;36.38;99255.59;5095555;28;20028;-69
2022/06/18 08:07:36;;;;;;;1.23;0.80;;;;;;;24.19;36.19;99254.78;5094952;28;20027;-69
2022/06/18 08:10:03;;;;;;;1.27;0.68;;;;;;;24.18;36.03;99255.00;5095533;28;20052;-72
2022/06/18 08:12:30;;;;;;;2.08;0.70;;;;;;;24.18;35.88;99245.00;5095158;28;20028;-72
2022/06/18 08:14:58;;;;;;;3.08;0.73;;;;;;;24.17;36.26;99250.63;5095028;28;20115;-72
2022/06/18 08:17:24;;;;;;;1.63;0.68;;;;;;;24.16;35.96;99240.88;5095316;28;20027;-70
2022/06/18 08:19:49;;;;;;;0.90;0.60;;;;;;;24.14;35.70;99251.06;5094961;28;20372;-71
2022/06/18 08:22:15;;;;;;;2.85;0.70;;;;;;;24.12;36.12;99253.16;5094832;28;20047;-69
2022/06/18 08:24:41;;;;;;;2.95;0.60;;;;;;;24.11;35.62;99255.03;5094725;28;20032;-72
2022/06/18 08:27:07;;;;;;;1.90;0.60;;;;;;;24.10;36.06;99261.47;5094744;28;20135;-72
2022/06/18 08:29:34;;;;;;;0.88;0.68;;;;;;;24.06;35.96;99252.97;5095074;28;20368;-71
2022/06/18 08:32:00;;;;;;;3.10;0.80;;;;;;;24.06;36.10;99260.25;5094230;28;20491;-72
2022/06/18 08:34:25;;;;;;;2.45;0.73;;;;;;;24.03;35.67;99258.81;5094549;28;20085;-70
2022/06/18 08:36:51;;;;;;;1.35;0.80;;;;;;;24.05;35.84;99262.09;5094848;28;20118;-70
2022/06/18 08:39:17;;;;;;;4.72;0.50;;;;;;;24.05;36.13;99253.19;5094818;28;20036;-70
2022/06/18 08:42:27;;;;;;;3.22;0.93;;;;;;;24.05;35.94;99253.19;5094695;28;20426;-71
2022/06/18 08:45:01;;;;;;;3.60;0.80;;;;;;;24.02;36.16;99254.47;5095012;28;20028;-72
2022/06/18 08:47:45;;;;;;;0.68;0.65;;;;;;;24.04;35.90;99244.22;5094642;28;20406;-71
2022/06/18 08:50:25;;;;;;;1.40;0.57;;;;;;;24.01;36.27;99244.69;5094280;28;20028;-71
2022/06/18 08:53:09;;;;;;;1.15;0.70;;;;;;;24.01;36.36;99247.41;5094304;28;20038;-70
2022/06/18 08:55:42;;;;;;;1.55;0.63;;;;;;;24.00;36.05;99244.88;5095108;28;20051;-69
2022/06/18 08:58:17;;;;;;;0.82;0.60;;;;;;;24.02;36.19;99242.81;5094098;28;20081;-70
2022/06/18 09:01:05;;;;;;;2.95;0.90;;;;;;;24.00;36.02;99244.88;5094489;28;20051;-69
2022/06/18 09:03:52;;;;;;;2.90;0.80;;;;;;;24.01;35.91;99251.94;5093928;28;20106;-70
2022/06/18 09:06:36;;;;;;;2.17;0.60;;;;;;;23.98;35.81;99263.19;5094175;28;20059;-70
2022/06/18 09:09:16;;;;;;;2.95;0.95;;;;;;;23.97;36.17;99253.44;5094250;28;20028;-69
2022/06/18 09:11:59;;;;;;;2.25;0.73;;;;;;;23.96;36.02;99243.66;5094069;28;20430;-69
2022/06/18 09:14:34;;;;;;;1.90;1.40;;;;;;;23.96;36.33;99243.66;5093726;28;20082;-70
2022/06/18 09:17:11;;;;;;;2.30;0.50;;;;;;;23.95;35.76;99245.50;5094086;28;20105;-71
2022/06/18 09:19:39;;;;;;;1.58;0.65;;;;;;;23.92;35.97;99243.22;5094125;28;20067;-71
2022/06/18 09:22:12;;;;;;;1.67;0.50;;;;;;;23.95;36.04;99248.22;5094214;28;20032;-72
2022/06/18 09:24:46;;;;;;;6.65;2.22;;;;;;;23.95;35.80;99242.00;5093598;28;20093;-69
2022/06/18 09:27:55;;;;;;;2.50;0.50;;;;;;;23.94;35.92;99241.16;5093308;28;20056;-70
2022/06/18 09:30:28;;;;;;;1.20;0.73;;;;;;;23.92;35.87;99243.22;5079426;28;20046;-70
2022/06/18 09:32:59;;;;;;;2.35;0.68;;;;;;;23.92;35.90;99237.84;5093609;28;20089;-71
2022/06/18 09:35:40;;;;;;;1.65;0.75;;;;;;;23.91;35.61;99237.03;5093445;28;20038;-71
2022/06/18 09:38:12;;;;;;;2.78;0.57;;;;;;;23.91;35.48;99226.22;5093633;28;20085;-71
2022/06/18 09:40:49;;;;;;;1.85;0.60;;;;;;;23.93;35.70;99231.38;5093760;28;20044;-73
2022/06/18 09:43:25;;;;;;;6.07;0.75;;;;;;;23.94;35.70;99224.94;5073147;28;20033;-69
2022/06/18 09:45:55;;;;;;;2.10;0.80;;;;;;;23.95;35.62;99226.59;5072995;28;20103;-70
2022/06/18 09:48:21;;;;;;;3.35;0.65;;;;;;;23.95;35.47;99223.09;5073707;28;20063;-70
2022/06/18 09:50:51;;;;;;;0.95;0.70;;;;;;;23.96;35.15;99219.34;5072940;28;20583;-69
2022/06/18 09:53:21;;;;;;;5.20;1.17;;;;;;;23.94;35.34;99219.53;5090799;28;20032;-71
2022/06/18 09:56:08;;;;;;;2.22;1.02;;;;;;;23.96;35.63;99211.22;5093893;28;20043;-71
2022/06/18 09:58:41;;;;;;;6.63;1.50;;;;;;;23.98;36.08;99217.25;5093318;28;20039;-71
2022/06/18 10:01:12;;;;;;;6.30;1.70;;;;;;;23.98;36.12;99220.78;5093016;28;20555;-71
2022/06/18 10:09:15;;;;;;;4.82;1.33;;;;;;;23.96;36.70;99216.63;5093769;28;20425;-71
2022/06/18 10:11:41;;;;;;;3.58;0.90;;;;;;;23.94;36.28;99230.34;5092758;28;20032;-70
2022/06/18 10:14:11;;;;;;;3.25;0.82;;;;;;;23.92;35.97;99227.88;5093155;28;20471;-70
2022/06/18 10:16:58;;;;;;;2.27;0.83;;;;;;;23.90;35.72;99223.72;5092993;28;20031;-69
2022/06/18 10:19:49;;;;;;;7.15;0.80;;;;;;;23.89;35.87;99222.06;5092780;28;20454;-69
2022/06/18 10:22:43;;;;;;;4.32;0.88;;;;;;;23.89;35.80;99227.47;5093182;28;20122;-70
2022/06/18 10:25:42;;;;;;;1.50;0.75;;;;;;;23.90;35.71;99231.81;5083005;28;20036;-72
2022/06/18 10:28:45;;;;;;;3.55;0.70;;;;;;;23.91;35.06;99223.50;5092353;28;20502;-72
2022/06/18 10:31:13;;;;;;;1.52;0.73;;;;;;;23.93;34.99;99231.38;5051151;28;20043;-70
2022/06/18 10:34:09;;;;;;;4.15;0.80;;;;;;;23.96;35.13;99231.00;5092750;28;20071;-70
2022/06/18 10:36:49;;;;;;;5.22;0.82;;;;;;;23.97;35.07;99248.03;5092832;28;20040;-69
2022/06/18 10:39:24;;;;;;;1.33;0.75;;;;;;;23.96;35.22;99236.41;5092796;28;20088;-69
2022/06/18 10:42:19;;;;;;;4.30;0.80;;;;;;;23.99;35.15;99237.81;5092542;28;20047;-70
2022/06/18 10:45:02;;;;;;;1.00;0.55;;;;;;;23.98;34.96;99230.75;5092550;28;20059;-71
2022/06/18 10:47:33;;;;;;;1.80;0.70;;;;;;;23.97;35.12;99227.25;5093197;28;20039;-69
2022/06/18 10:50:00;;;;;;;;;;;;;;;23.90;35.30;99229.09;5092787;28;20059;-71
2022/06/18 10:52:26;;;;;;;2.75;0.60;;;;;;;23.90;34.66;99234.50;5092252;28;20409;-71
2022/06/18 10:55:10;;;;;;;3.95;0.70;;;;;;;23.94;34.41;99230.34;5092662;28;20067;-71
2022/06/18 10:57:36;;;;;;;1.15;0.60;;;;;;;23.91;34.35;99236.16;5096379;28;20085;-68
2022/06/18 11:00:28;;;;;;;6.30;0.82;;;;;;;23.91;34.79;99230.78;5096507;28;20035;-70
2022/06/18 11:03:00;;;;;;;2.13;0.73;;;;;;;23.91;34.95;99228.06;5092288;28;20399;-71
2022/06/18 11:05:38;;;;;;;2.08;0.60;;;;;;;23.92;35.02;99232.44;5096357;28;20051;-68
2022/06/18 11:08:18;;;;;;;2.53;0.70;;;;;;;23.92;35.04;99232.44;5096783;28;20039;-69
2022/06/18 11:10:48;;;;;;;2.30;1.15;;;;;;;23.91;34.68;99228.06;5096594;28;20437;-72
2022/06/18 11:13:21;;;;;;;2.78;0.70;;;;;;;23.88;34.63;99225.81;5095846;28;20032;-69
2022/06/18 11:15:47;;;;;;;1.33;0.70;;;;;;;23.87;35.12;99224.97;5096105;28;20032;-71
2022/06/18 11:18:19;;;;;;;5.78;0.60;;;;;;;23.85;35.04;99218.94;5096291;28;20028;-69
2022/06/18 11:21:03;;;;;;;1.00;0.60;;;;;;;23.84;35.08;99213.78;5096424;28;20068;-68
2022/06/18 11:23:31;;;;;;;1.40;0.68;;;;;;;23.81;34.99;99217.75;5096354;28;20032;-69
2022/06/18 11:25:57;;;;;;;1.42;0.75;;;;;;;23.79;35.08;99214.44;5077534;28;20031;-69
2022/06/18 11:28:36;;;;;;;2.85;0.80;;;;;;;23.78;34.74;99212.78;5095699;28;20139;-70
2022/06/18 11:31:04;;;;;;;1.40;0.50;;;;;;;23.77;35.32;99209.22;5095873;28;20027;-72
2022/06/18 11:33:52;;;;;;;1.60;0.70;;;;;;;23.80;34.94;99207.13;5096072;28;20032;-72
2022/06/18 11:36:30;;;;;;;1.17;0.70;;;;;;;23.80;34.89;99201.75;5095769;28;20544;-70
2022/06/18 11:38:58;;;;;;;2.50;0.77;;;;;;;23.81;34.89;99192.59;5096012;28;20036;-70
2022/06/18 11:41:38;;;;;;;2.58;0.60;;;;;;;23.83;34.74;99185.91;5095883;28;20028;-72
2022/06/18 11:44:09;;;;;;;1.40;0.73;;;;;;;23.81;35.00;99190.72;5096261;28;20032;-69
2022/06/18 11:46:55;;;;;;;;;;;;;;;23.74;34.84;99190.78;5096299;28;20032;-68
2022/06/18 11:49:35;;;;;;;1.85;0.82;;;;;;;23.76;35.03;99195.94;5095945;28;20026;-69
2022/06/18 11:52:18;;;;;;;4.15;0.82;;;;;;;23.77;34.73;99182.22;5095182;28;20034;-67
2022/06/18 11:55:03;;;;;;;2.28;0.73;;;;;;;23.81;34.97;99181.78;5095993;28;20032;-71
2022/06/18 11:57:52;;;;;;;2.25;0.93;;;;;;;23.79;34.90;99182.00;5095356;28;20032;-68
2022/06/18 12:00:24;;;;;;;1.50;0.95;;;;;;;23.80;34.72;99175.56;5057370;28;20032;-69
2022/06/18 12:03:10;;;;;;;2.90;0.80;;;;;;;23.81;34.65;99177.22;5095079;28;20031;-68
2022/06/18 12:05:58;;;;;;;3.08;0.95;;;;;;;23.80;34.87;99175.56;5095990;28;20039;-71